createdAt,value
2019-05-22T00:01:46.506Z,97.60
2019-05-22T00:07:12.110Z,97.90
2019-05-22T00:09:44.255Z,97.50
2019-05-22T00:12:15.556Z,97.20
2019-05-22T00:14:46.187Z,97.50
2019-05-22T00:17:15.898Z,97.30
2019-05-22T00:19:46.425Z,97.40
2019-05-22T00:22:23.683Z,97.40
2019-05-22T00:24:54.830Z,97.90
2019-05-22T00:27:26.103Z,97.60
2019-05-22T00:29:57.451Z,97.70
2019-05-22T00:32:27.219Z,98.10
2019-05-22T00:34:57.960Z,97.70
2019-05-22T00:37:29.251Z,97.60
2019-05-22T00:40:00.593Z,97.90
2019-05-22T00:42:31.839Z,97.90
2019-05-22T00:45:02.799Z,97.50
2019-05-22T00:47:32.590Z,97.70
2019-05-22T00:50:04.115Z,97.90
2019-05-22T00:52:46.939Z,98.10
2019-05-22T00:55:17.073Z,97.60
2019-05-22T00:57:50.989Z,97.50
2019-05-22T01:00:22.238Z,97.80
2019-05-22T01:02:52.408Z,98.20
2019-05-22T01:05:23.800Z,97.60
2019-05-22T01:07:53.413Z,97.60
2019-05-22T01:10:23.096Z,97.50
2019-05-22T01:12:56.067Z,97.90
2019-05-22T01:15:27.051Z,97.50
2019-05-22T01:17:56.656Z,97.40
2019-05-22T01:20:29.336Z,97.60
2019-05-22T01:22:59.967Z,97.40
2019-05-22T01:25:31.212Z,97.60
2019-05-22T01:28:02.155Z,97.70
2019-05-22T01:30:42.411Z,97.60
2019-05-22T01:33:18.101Z,97.50
2019-05-22T01:35:55.244Z,97.30
2019-05-22T01:38:25.887Z,97.40
2019-05-22T01:41:05.623Z,97.30
2019-05-22T01:43:35.230Z,97.10
2019-05-22T01:46:07.531Z,97.30
2019-05-22T01:48:39.569Z,97.00
2019-05-22T01:51:11.016Z,97.10
2019-05-22T01:53:42.399Z,97.10
2019-05-22T01:56:13.780Z,97.30
2019-05-22T01:58:43.936Z,97.10
2019-05-22T02:01:16.825Z,97.10
2019-05-22T02:03:48.271Z,97.40
2019-05-22T02:06:19.632Z,97.00
2019-05-22T02:08:55.155Z,97.10
2019-05-22T02:11:26.413Z,96.90
2019-05-22T02:14:11.794Z,96.70
2019-05-22T02:16:56.204Z,97.10
2019-05-22T02:19:14.486Z,97.20
2019-05-22T02:21:44.806Z,97.20
2019-05-22T02:24:16.160Z,96.90
2019-05-22T02:26:46.267Z,97.20
2019-05-22T02:29:17.526Z,97.10
2019-05-22T02:31:48.338Z,97.20
2019-05-22T02:34:19.141Z,97.40
2019-05-22T02:36:48.781Z,97.10
2019-05-22T02:39:20.166Z,97.30
2019-05-22T02:41:55.107Z,97.20
2019-05-22T02:44:27.838Z,97.10
2019-05-22T02:47:16.789Z,97.10
2019-05-22T02:49:34.006Z,97.20
2019-05-22T02:52:03.787Z,97.40
2019-05-22T02:54:33.648Z,97.50
2019-05-22T02:57:03.793Z,97.10
2019-05-22T02:59:33.811Z,96.80
2019-05-22T03:02:04.194Z,96.60
2019-05-22T03:04:56.374Z,96.80
2019-05-22T03:07:26.790Z,97.10
2019-05-22T03:09:56.810Z,96.90
2019-05-22T03:12:30.616Z,97.10
2019-05-22T03:15:02.702Z,97.40
2019-05-22T03:17:33.773Z,97.50
2019-05-22T03:20:07.506Z,97.70
2019-05-22T03:22:44.620Z,97.50
2019-05-22T03:25:15.866Z,97.20
2019-05-22T03:27:52.012Z,96.90
2019-05-22T03:30:24.692Z,97.00
2019-05-22T03:32:55.628Z,96.90
2019-05-22T03:35:26.465Z,97.30
2019-05-22T03:37:57.292Z,97.20
2019-05-22T03:40:27.142Z,97.50
2019-05-22T03:42:57.535Z,97.30
2019-05-22T03:45:28.781Z,97.20
2019-05-22T03:47:59.641Z,97.30
2019-05-22T03:50:31.491Z,96.60
2019-05-22T03:53:05.596Z,97.10
2019-05-22T03:55:35.324Z,97.10
2019-05-22T03:58:05.548Z,97.00
2019-05-22T04:00:35.263Z,96.90
2019-05-22T04:03:05.264Z,97.00
2019-05-22T04:05:36.762Z,96.50
2019-05-22T04:08:08.278Z,96.50
2019-05-22T04:10:41.305Z,96.60
2019-05-22T04:13:11.182Z,96.80
2019-05-22T04:15:40.898Z,96.60
2019-05-22T04:18:14.569Z,97.00
2019-05-22T04:20:44.306Z,96.50
2019-05-22T04:23:14.709Z,96.20
2019-05-22T04:25:44.723Z,96.10
2019-05-22T04:28:14.666Z,96.40
2019-05-22T04:30:44.372Z,96.80
2019-05-22T04:33:14.085Z,96.50
2019-05-22T04:35:44.205Z,96.50
2019-05-22T04:38:15.552Z,96.90
2019-05-22T04:40:49.390Z,96.70
2019-05-22T04:43:21.156Z,97.10
2019-05-22T04:45:51.469Z,97.10
2019-05-22T04:48:22.082Z,97.20
2019-05-22T04:50:52.194Z,97.10
2019-05-22T04:53:21.906Z,96.70
2019-05-22T04:55:52.525Z,96.40
2019-05-22T04:58:26.725Z,96.30
2019-05-22T05:00:56.468Z,96.60
2019-05-22T05:03:26.145Z,96.40
2019-05-22T05:05:57.799Z,96.90
2019-05-22T05:08:27.432Z,96.70
2019-05-22T05:10:58.680Z,96.50
2019-05-22T05:13:28.362Z,96.60
2019-05-22T05:15:58.103Z,96.70
2019-05-22T05:18:27.809Z,96.20
2019-05-22T05:20:57.470Z,95.90
2019-05-22T05:23:27.742Z,96.30
2019-05-22T05:25:58.476Z,96.30
2019-05-22T05:28:28.467Z,96.10
2019-05-22T05:30:58.203Z,96.20
2019-05-22T05:33:28.196Z,96.40
2019-05-22T05:36:00.366Z,95.80
2019-05-22T05:38:34.889Z,96.00
2019-05-22T05:41:04.621Z,96.20
2019-05-22T05:43:34.407Z,95.80
2019-05-22T05:46:04.332Z,95.70
2019-05-22T05:48:36.240Z,95.40
2019-05-22T05:51:09.103Z,94.90
2019-05-22T05:54:02.149Z,95.00
2019-05-22T05:56:32.169Z,95.20
2019-05-22T05:59:03.265Z,95.70
2019-05-22T06:01:37.224Z,95.40
2019-05-22T06:04:07.136Z,95.50
2019-05-22T06:06:42.285Z,95.00
2019-05-22T06:09:15.336Z,95.30
2019-05-22T06:11:49.355Z,95.70
2019-05-22T06:14:26.153Z,95.40
2019-05-22T06:17:23.795Z,95.80
2019-05-22T06:19:56.601Z,95.50
2019-05-22T06:22:26.284Z,95.30
2019-05-22T06:24:57.531Z,95.50
2019-05-22T06:27:31.743Z,95.00
2019-05-22T06:30:06.291Z,95.00
2019-05-22T06:32:55.560Z,95.20
2019-05-22T06:35:26.983Z,95.30
2019-05-22T06:38:25.448Z,95.20
2019-05-22T06:40:56.233Z,95.60
2019-05-22T06:43:30.445Z,95.10
2019-05-22T06:46:01.159Z,95.00
2019-05-22T06:48:30.791Z,95.50
2019-05-22T06:51:00.475Z,95.60
2019-05-22T06:53:30.183Z,96.10
2019-05-22T06:56:01.617Z,95.00
2019-05-22T06:58:31.366Z,94.60
2019-05-22T07:01:01.076Z,94.30
2019-05-22T07:03:31.716Z,94.40
2019-05-22T07:06:02.614Z,94.60
2019-05-22T07:08:32.435Z,94.30
2019-05-22T07:11:02.172Z,94.00
2019-05-22T07:13:31.892Z,94.40
2019-05-22T07:16:02.097Z,94.80
2019-05-22T07:18:32.230Z,94.20
2019-05-22T07:21:01.936Z,93.80
2019-05-22T07:23:32.258Z,94.10
2019-05-22T07:26:02.358Z,94.70
2019-05-22T07:28:32.706Z,94.80
2019-05-22T07:31:03.103Z,94.20
2019-05-22T07:33:32.841Z,93.90
2019-05-22T07:36:10.235Z,94.20
2019-05-22T07:38:35.434Z,93.50
2019-05-22T07:41:06.069Z,94.10
2019-05-22T07:43:40.465Z,93.90
2019-05-22T07:46:07.099Z,94.40
2019-05-22T07:48:37.020Z,94.60
2019-05-22T07:51:06.751Z,94.70
2019-05-22T07:53:36.459Z,94.80
2019-05-22T07:56:10.301Z,94.50
2019-05-22T07:58:41.390Z,94.70
2019-05-22T08:01:11.633Z,94.00
2019-05-22T08:03:41.836Z,93.00
2019-05-22T08:06:11.877Z,93.70
2019-05-22T08:08:42.604Z,93.60
2019-05-22T08:11:14.220Z,93.10
2019-05-22T08:13:44.321Z,93.00
2019-05-22T08:16:14.065Z,93.10
2019-05-22T08:18:44.013Z,93.40
2019-05-22T08:21:14.029Z,93.90
2019-05-22T08:23:43.733Z,92.90
2019-05-22T08:26:15.056Z,93.10
2019-05-22T08:28:44.998Z,93.00
2019-05-22T08:31:15.935Z,91.60
2019-05-22T08:33:45.527Z,91.10
2019-05-22T08:36:16.952Z,90.40
2019-05-22T08:38:47.822Z,89.60
2019-05-22T08:41:19.466Z,91.00
2019-05-22T08:44:13.661Z,90.70
2019-05-22T08:46:20.619Z,90.70
2019-05-22T08:48:50.355Z,89.70
2019-05-22T08:51:20.276Z,89.70
2019-05-22T08:53:51.043Z,89.40
2019-05-22T08:56:21.887Z,90.50
2019-05-22T08:58:51.555Z,91.00
2019-05-22T09:01:21.368Z,91.00
2019-05-22T09:03:51.391Z,91.20
2019-05-22T09:06:23.094Z,91.80
2019-05-22T09:08:52.746Z,90.20
2019-05-22T09:11:22.537Z,90.90
2019-05-22T09:13:52.270Z,91.70
2019-05-22T09:16:22.492Z,90.10
2019-05-22T09:18:52.600Z,90.00
2019-05-22T09:21:22.738Z,86.90
2019-05-22T09:23:53.139Z,87.80
2019-05-22T09:26:23.484Z,89.40
2019-05-22T09:28:53.167Z,89.10
2019-05-22T09:31:22.905Z,89.10
2019-05-22T09:33:52.799Z,88.50
2019-05-22T09:36:22.528Z,89.50
2019-05-22T09:38:52.873Z,86.70
2019-05-22T09:41:22.675Z,86.70
2019-05-22T09:43:52.353Z,87.70
2019-05-22T09:46:22.913Z,89.30
2019-05-22T09:48:55.742Z,90.30
2019-05-22T09:51:26.833Z,87.90
2019-05-22T09:53:56.823Z,87.50
2019-05-22T09:56:26.941Z,89.10
2019-05-22T09:58:58.790Z,86.20
2019-05-22T10:01:27.924Z,87.70
2019-05-22T10:03:57.742Z,86.50
2019-05-22T10:06:27.455Z,87.20
2019-05-22T10:08:58.080Z,82.20
2019-05-22T10:11:28.299Z,83.80
2019-05-22T10:13:58.010Z,84.40
2019-05-22T10:16:27.721Z,83.70
2019-05-22T10:18:57.406Z,83.40
2019-05-22T10:21:28.037Z,81.80
2019-05-22T10:23:57.781Z,84.70
2019-05-22T10:26:27.482Z,83.70
2019-05-22T10:28:57.268Z,83.40
2019-05-22T10:31:27.215Z,80.30
2019-05-22T10:33:56.919Z,80.60
2019-05-22T10:36:26.607Z,79.90
2019-05-22T10:38:56.340Z,80.40
2019-05-22T10:41:25.945Z,80.40
2019-05-22T10:43:55.784Z,82.20
2019-05-22T10:46:27.339Z,78.30
2019-05-22T10:48:56.821Z,79.10
2019-05-22T10:51:26.609Z,75.00
2019-05-22T10:53:56.279Z,74.00
2019-05-22T10:56:25.950Z,73.10
2019-05-22T10:58:55.661Z,71.20
2019-05-22T11:01:25.589Z,69.10
2019-05-22T11:03:55.697Z,69.00
2019-05-22T11:06:25.687Z,69.70
2019-05-22T11:08:55.703Z,67.90
2019-05-22T11:11:26.588Z,71.50
2019-05-22T11:14:01.495Z,71.00
2019-05-22T11:16:28.128Z,71.40
2019-05-22T11:18:58.066Z,73.10
2019-05-22T11:21:29.552Z,73.10
2019-05-22T11:23:59.287Z,73.70
2019-05-22T11:26:29.001Z,71.40
2019-05-22T11:28:58.707Z,72.50
2019-05-22T11:31:29.624Z,71.90
2019-05-22T11:33:59.282Z,71.60
2019-05-22T11:36:28.882Z,70.90
2019-05-22T11:38:58.577Z,70.10
2019-05-22T11:41:28.307Z,68.50
2019-05-22T11:43:58.979Z,68.00
2019-05-22T11:46:28.860Z,67.90
2019-05-22T11:49:00.295Z,68.20
2019-05-22T11:51:29.913Z,69.40
2019-05-22T11:54:08.789Z,70.30
2019-05-22T11:56:30.870Z,70.10
2019-05-22T11:59:00.580Z,72.80
2019-05-22T12:01:31.316Z,71.10
2019-05-22T12:04:01.012Z,71.80
2019-05-22T12:06:30.911Z,71.40
2019-05-22T12:09:00.649Z,72.00
2019-05-22T12:11:30.462Z,72.00
2019-05-22T12:14:01.621Z,69.90
2019-05-22T12:16:31.392Z,69.30
2019-05-22T12:19:01.232Z,72.00
2019-05-22T12:21:30.939Z,71.90
2019-05-22T12:24:01.881Z,70.00
2019-05-22T12:26:31.793Z,71.60
2019-05-22T12:29:01.563Z,73.20
2019-05-22T12:31:31.418Z,73.70
2019-05-22T12:34:01.416Z,73.70
2019-05-22T12:36:31.119Z,75.10
2019-05-22T12:39:01.371Z,75.40
2019-05-22T12:41:32.410Z,73.50
2019-05-22T12:44:02.120Z,73.30
2019-05-22T12:46:34.289Z,71.80
2019-05-22T12:49:08.601Z,72.90
2019-05-22T12:51:35.960Z,74.60
2019-05-22T12:54:05.861Z,71.60
2019-05-22T12:56:37.332Z,70.80
2019-05-22T12:59:08.880Z,73.90
2019-05-22T13:01:38.877Z,73.00
2019-05-22T13:04:09.119Z,73.70
2019-05-22T13:06:39.111Z,72.90
2019-05-22T13:09:09.748Z,73.80
2019-05-22T13:11:39.387Z,73.70
2019-05-22T13:14:10.211Z,73.70
2019-05-22T13:19:04.015Z,72.00
2019-05-22T13:21:34.120Z,71.40
2019-05-22T13:24:08.133Z,70.40
2019-05-22T13:26:38.812Z,70.50
2019-05-22T13:29:08.735Z,68.70
2019-05-22T13:31:38.397Z,68.90
2019-05-22T13:34:08.099Z,70.70
2019-05-22T13:36:38.499Z,71.10
2019-05-22T13:39:09.163Z,75.00
2019-05-22T13:41:38.865Z,75.20
2019-05-22T13:44:09.094Z,75.80
2019-05-22T13:46:38.798Z,76.30
2019-05-22T13:49:08.487Z,78.40
2019-05-22T13:51:38.399Z,78.30
2019-05-22T13:54:08.849Z,80.50
2019-05-22T13:56:38.766Z,80.30
2019-05-22T13:59:08.475Z,78.90
2019-05-22T14:01:38.184Z,76.50
2019-05-22T14:04:07.971Z,77.20
2019-05-22T14:06:37.707Z,76.30
2019-05-22T14:09:13.357Z,75.60
2019-05-22T14:11:43.072Z,76.70
2019-05-22T14:14:12.967Z,74.50
2019-05-22T14:16:48.731Z,74.90
2019-05-22T14:19:13.911Z,76.20
2019-05-22T14:21:50.999Z,77.50
2019-05-22T14:24:16.709Z,75.10
2019-05-22T14:26:46.392Z,73.50
2019-05-22T14:29:16.272Z,72.60
2019-05-22T14:31:45.857Z,75.50
2019-05-22T14:34:15.782Z,75.20
2019-05-22T14:36:45.498Z,74.90
2019-05-22T14:39:15.616Z,76.70
2019-05-22T14:41:45.328Z,76.90
2019-05-22T14:44:15.037Z,78.00
2019-05-22T14:46:44.743Z,75.00
2019-05-22T14:49:14.657Z,77.00
2019-05-22T14:51:44.572Z,74.60
2019-05-22T14:54:14.254Z,73.40
2019-05-22T14:56:43.872Z,75.10
2019-05-22T14:59:13.647Z,73.50
2019-05-22T15:01:43.494Z,73.60
2019-05-22T15:04:13.225Z,72.20
2019-05-22T15:06:42.964Z,73.50
2019-05-22T15:09:12.619Z,74.40
2019-05-22T15:11:42.355Z,74.70
2019-05-22T15:14:12.040Z,73.80
2019-05-22T15:16:41.751Z,75.20
2019-05-22T15:19:11.485Z,74.00
2019-05-22T15:21:41.173Z,74.20
2019-05-22T15:24:10.881Z,71.80
2019-05-22T15:26:40.517Z,70.10
2019-05-22T15:29:10.224Z,69.40
2019-05-22T15:31:41.684Z,70.80
2019-05-22T15:34:12.204Z,72.40
2019-05-22T15:36:41.813Z,73.30
2019-05-22T15:39:13.061Z,73.50
2019-05-22T15:41:42.768Z,71.30
2019-05-22T15:44:12.460Z,71.80
2019-05-22T15:46:42.904Z,70.20
2019-05-22T15:49:12.895Z,72.90
2019-05-22T15:51:42.848Z,70.60
2019-05-22T15:54:13.030Z,71.10
2019-05-22T15:56:43.077Z,71.80
2019-05-22T15:59:14.015Z,70.70
2019-05-22T16:01:43.726Z,73.30
2019-05-22T16:04:15.074Z,72.70
2019-05-22T16:06:45.064Z,70.90
2019-05-22T16:09:16.337Z,74.80
2019-05-22T16:11:49.055Z,77.80
2019-05-22T16:14:20.149Z,77.70
2019-05-22T16:16:50.047Z,77.90
2019-05-22T16:19:19.887Z,74.30
2019-05-22T16:21:49.597Z,75.30
2019-05-22T16:24:21.155Z,73.70
2019-05-22T16:26:50.871Z,73.30
2019-05-22T16:29:20.980Z,72.30
2019-05-22T16:31:50.806Z,73.10
2019-05-22T16:34:20.504Z,73.80
2019-05-22T16:36:50.418Z,76.60
2019-05-22T16:39:20.646Z,78.50
2019-05-22T16:41:50.372Z,76.60
2019-05-22T16:44:20.060Z,77.30
2019-05-22T16:46:50.078Z,78.10
2019-05-22T16:49:20.020Z,76.00
2019-05-22T16:51:49.805Z,73.00
2019-05-22T16:54:21.439Z,72.50
2019-05-22T16:56:50.739Z,72.90
2019-05-22T16:59:40.615Z,74.30
2019-05-22T17:02:12.008Z,74.90
2019-05-22T17:04:41.600Z,75.90
2019-05-22T17:07:11.492Z,76.90
2019-05-22T17:09:41.202Z,77.70
2019-05-22T17:12:11.553Z,77.70
2019-05-22T17:14:41.238Z,77.50
2019-05-22T17:17:10.971Z,79.10
2019-05-22T17:19:40.680Z,78.20
2019-05-22T17:22:10.571Z,78.20
2019-05-22T17:24:40.305Z,78.50
2019-05-22T17:27:10.529Z,79.90
2019-05-22T17:29:40.211Z,79.70
2019-05-22T17:32:10.461Z,80.90
2019-05-22T17:34:41.272Z,80.70
2019-05-22T17:37:13.241Z,81.50
2019-05-22T17:39:44.819Z,82.90
2019-05-22T17:42:15.354Z,83.80
2019-05-22T17:44:46.590Z,82.30
2019-05-22T17:47:17.834Z,81.00
2019-05-22T17:49:47.544Z,80.90
2019-05-22T17:52:18.088Z,83.30
2019-05-22T17:54:48.170Z,82.90
2019-05-22T17:57:18.081Z,81.90
2019-05-22T17:59:48.236Z,81.50
2019-05-22T18:02:19.671Z,81.50
2019-05-22T18:04:50.209Z,81.90
2019-05-22T18:07:19.939Z,82.80
2019-05-22T18:09:50.217Z,81.50
2019-05-22T18:12:20.164Z,84.20
2019-05-22T18:14:50.078Z,85.20
2019-05-22T18:17:21.999Z,85.20
2019-05-22T18:19:51.618Z,86.20
2019-05-22T18:22:21.365Z,87.00
2019-05-22T18:24:51.243Z,87.10
2019-05-22T18:27:20.980Z,87.90
2019-05-22T18:29:50.590Z,88.40
2019-05-22T18:32:20.199Z,88.40
2019-05-22T18:34:50.899Z,89.20
2019-05-22T18:37:20.638Z,89.80
2019-05-22T18:39:50.323Z,90.50
2019-05-22T18:42:20.569Z,90.70
2019-05-22T18:44:50.252Z,91.20
2019-05-22T18:47:20.300Z,90.80
2019-05-22T18:49:49.981Z,91.10
2019-05-22T18:52:19.717Z,91.00
2019-05-22T18:54:51.379Z,91.10
2019-05-22T18:57:21.288Z,91.20
2019-05-22T18:59:51.013Z,91.10
2019-05-22T19:02:22.416Z,90.90
2019-05-22T19:04:52.137Z,91.00
2019-05-22T19:07:23.555Z,91.10
2019-05-22T19:09:53.291Z,90.50
2019-05-22T19:12:23.414Z,90.50
2019-05-22T19:14:53.150Z,90.40
2019-05-22T19:17:22.865Z,90.70
2019-05-22T19:19:52.603Z,90.10
2019-05-22T19:22:22.421Z,89.70
2019-05-22T19:24:52.095Z,90.10
2019-05-22T19:27:21.907Z,89.80
2019-05-22T19:29:51.588Z,89.20
2019-05-22T19:32:23.259Z,89.20
2019-05-22T19:34:52.882Z,89.60
2019-05-22T19:37:22.563Z,88.90
2019-05-22T19:39:53.298Z,88.90
2019-05-22T19:42:23.237Z,88.60
2019-05-22T19:44:52.948Z,89.10
2019-05-22T19:47:23.040Z,88.30
2019-05-22T19:49:52.885Z,88.70
2019-05-22T19:52:40.478Z,87.00
2019-05-22T19:54:54.238Z,87.10
2019-05-22T19:57:23.854Z,87.50
2019-05-22T19:59:53.565Z,88.00
2019-05-22T20:02:23.275Z,87.90
2019-05-22T20:04:53.160Z,88.40
2019-05-22T20:07:24.503Z,88.50
2019-05-22T20:09:54.761Z,88.70
2019-05-22T20:12:25.596Z,88.50
2019-05-22T20:14:55.346Z,88.20
2019-05-22T20:17:27.977Z,88.70
2019-05-22T20:19:57.771Z,88.90
2019-05-22T20:22:28.517Z,88.70
2019-05-22T20:24:58.119Z,88.90
2019-05-22T20:27:27.851Z,89.60
2019-05-22T20:29:58.658Z,89.50
2019-05-22T20:32:28.396Z,89.10
2019-05-22T20:34:58.111Z,89.40
2019-05-22T20:37:28.329Z,90.00
2019-05-22T20:39:58.040Z,90.10
2019-05-22T20:42:28.057Z,90.30
2019-05-22T20:44:57.870Z,90.50
2019-05-22T20:47:28.501Z,90.60
2019-05-22T20:49:59.981Z,90.70
2019-05-22T20:52:30.153Z,90.80
2019-05-22T20:55:03.154Z,91.10
2019-05-22T20:57:33.795Z,90.90
2019-05-22T21:00:06.875Z,90.90
2019-05-22T21:02:38.730Z,90.70
2019-05-22T21:05:11.220Z,90.60
2019-05-22T21:07:46.189Z,90.50
2019-05-22T21:10:15.935Z,90.20
2019-05-22T21:12:46.548Z,90.10
2019-05-22T21:15:16.284Z,90.30
2019-05-22T21:17:46.532Z,88.80
2019-05-22T21:20:17.756Z,87.70
2019-05-22T21:22:47.680Z,87.70
2019-05-22T21:25:17.299Z,88.20
2019-05-22T21:27:46.905Z,89.20
2019-05-22T21:30:17.101Z,90.30
2019-05-22T21:32:46.835Z,90.40
2019-05-22T21:35:17.363Z,90.30
2019-05-22T21:37:47.381Z,90.70
2019-05-22T21:40:18.119Z,90.70
2019-05-22T21:42:49.516Z,91.00
2019-05-22T21:45:19.661Z,91.30
2019-05-22T21:47:49.400Z,91.20
2019-05-22T21:50:20.233Z,91.10
2019-05-22T21:52:49.945Z,91.30
2019-05-22T21:55:19.833Z,91.40
2019-05-22T21:57:49.782Z,90.70
2019-05-22T22:00:40.756Z,90.50
2019-05-22T22:03:12.427Z,90.40
2019-05-22T22:05:42.456Z,90.60
2019-05-22T22:08:12.780Z,90.00
2019-05-22T22:10:42.486Z,90.20
2019-05-22T22:13:13.225Z,89.40
2019-05-22T22:15:46.491Z,88.00
2019-05-22T22:18:16.229Z,86.90
2019-05-22T22:20:45.915Z,88.40
2019-05-22T22:23:15.647Z,89.40
2019-05-22T22:25:46.355Z,89.50
2019-05-22T22:28:17.602Z,89.70
2019-05-22T22:30:52.151Z,90.20
2019-05-22T22:33:31.544Z,90.60
2019-05-22T22:36:02.399Z,90.50
2019-05-22T22:38:33.008Z,90.40
2019-05-22T22:41:02.772Z,90.30
2019-05-22T22:43:32.997Z,90.90
2019-05-22T22:46:19.800Z,90.60
2019-05-22T22:48:52.541Z,90.70
2019-05-22T22:51:24.751Z,90.90
2019-05-22T22:53:55.939Z,91.20
2019-05-22T22:56:28.104Z,91.30
2019-05-22T22:58:58.489Z,91.20
2019-05-22T23:01:31.013Z,91.30
2019-05-22T23:04:01.291Z,91.20
2019-05-22T23:06:31.205Z,91.30
2019-05-22T23:09:01.218Z,91.50
2019-05-22T23:11:32.876Z,92.00
2019-05-22T23:14:03.269Z,91.90
2019-05-22T23:16:33.218Z,92.10
2019-05-22T23:19:16.014Z,92.10
2019-05-22T23:21:45.643Z,92.20
2019-05-22T23:24:16.800Z,92.20
2019-05-22T23:26:47.595Z,92.10
2019-05-22T23:29:17.335Z,92.00
2019-05-22T23:31:48.785Z,91.30
2019-05-22T23:34:18.494Z,91.20
2019-05-22T23:36:48.620Z,91.00
2019-05-22T23:39:18.837Z,91.00
2019-05-22T23:41:48.752Z,91.20
2019-05-22T23:44:19.587Z,91.40
2019-05-22T23:46:49.990Z,91.80
2019-05-22T23:49:19.700Z,92.10
2019-05-22T23:51:49.536Z,92.10
2019-05-22T23:54:22.544Z,92.10
2019-05-22T23:56:54.088Z,92.10
2019-05-22T23:59:25.157Z,92.20
